Terminal Aerodrome Forecast
Issued by NWS Sioux Falls, SD

Home | Current Version | Previous Version | Text Only | Print | Product List | Glossary On
Versions: 1 2 3 4 5 6 7 8 9 10 11 12 13 14 15 16
000
FTUS43 KFSD 252321
TAFSUX
TAF
KSUX 252321Z 2600/2624 35009KT 5SM -RA BR OVC008
      TEMPO 2600/2603 2SM BR
     FM260300 01008KT 5SM -RA BR OVC006
     FM261000 33008KT P6SM OVC008
     FM261500 32011KT P6SM OVC015
     FM262100 33008KT P6SM OVC035=

USA.gov is the U.S. government's official web portal to all federal, state and local government web resources and services.